sensor_id;sensor_type;location;lat;lon;timestamp;pressure;altitude;pressure_sealevel;temperature;humidity
27980;BME280;15315;50.836;4.430;2022-08-18T00:02:04;100763.06;;;26.02;53.27
27980;BME280;15315;50.836;4.430;2022-08-18T00:12:11;100752.91;;;25.75;53.74
27980;BME280;15315;50.836;4.430;2022-08-18T00:22:14;100763.47;;;25.24;55.55
27980;BME280;15315;50.836;4.430;2022-08-18T00:32:21;100766.25;;;25.65;54.02
27980;BME280;15315;50.836;4.430;2022-08-18T00:42:26;100755.91;;;25.39;54.70
27980;BME280;15315;50.836;4.430;2022-08-18T00:52:27;100763.00;;;25.55;53.91
27980;BME280;15315;50.836;4.430;2022-08-18T01:02:32;100766.88;;;25.60;53.55
27980;BME280;15315;50.836;4.430;2022-08-18T01:12:34;100782.16;;;25.63;53.88
27980;BME280;15315;50.836;4.430;2022-08-18T01:23:16;100802.78;;;25.67;54.54
27980;BME280;15315;50.836;4.430;2022-08-18T01:33:17;100806.56;;;25.59;54.45
27980;BME280;15315;50.836;4.430;2022-08-18T01:43:18;100808.72;;;25.98;53.25
27980;BME280;15315;50.836;4.430;2022-08-18T01:53:18;100805.88;;;25.85;53.94
27980;BME280;15315;50.836;4.430;2022-08-18T02:03:19;100805.31;;;25.96;53.51
27980;BME280;15315;50.836;4.430;2022-08-18T02:13:19;100802.22;;;26.19;53.59
27980;BME280;15315;50.836;4.430;2022-08-18T02:23:20;100802.75;;;26.55;53.11
27980;BME280;15315;50.836;4.430;2022-08-18T02:33:20;100804.28;;;26.10;54.38
27980;BME280;15315;50.836;4.430;2022-08-18T02:43:20;100790.91;;;26.07;54.68
27980;BME280;15315;50.836;4.430;2022-08-18T02:53:21;100796.72;;;25.78;54.78
27980;BME280;15315;50.836;4.430;2022-08-18T03:03:22;100785.97;;;25.89;54.59
27980;BME280;15315;50.836;4.430;2022-08-18T03:13:22;100773.75;;;25.77;54.80
27980;BME280;15315;50.836;4.430;2022-08-18T03:23:23;100780.78;;;25.80;55.69
27980;BME280;15315;50.836;4.430;2022-08-18T03:33:23;100761.97;;;25.56;56.34
27980;BME280;15315;50.836;4.430;2022-08-18T03:43:23;100776.94;;;25.40;57.50
27980;BME280;15315;50.836;4.430;2022-08-18T03:53:24;100781.88;;;25.79;56.28
27980;BME280;15315;50.836;4.430;2022-08-18T04:03:24;100779.44;;;24.80;60.38
27980;BME280;15315;50.836;4.430;2022-08-18T04:13:27;100785.22;;;25.12;59.55
27980;BME280;15315;50.836;4.430;2022-08-18T04:23:28;100795.38;;;25.67;57.19
27980;BME280;15315;50.836;4.430;2022-08-18T04:33:29;100804.47;;;25.61;56.74
27980;BME280;15315;50.836;4.430;2022-08-18T04:43:29;100796.38;;;25.60;56.23
27980;BME280;15315;50.836;4.430;2022-08-18T04:53:30;100821.53;;;25.44;56.24
27980;BME280;15315;50.836;4.430;2022-08-18T05:03:46;100841.84;;;25.92;55.18
27980;BME280;15315;50.836;4.430;2022-08-18T05:13:47;100835.13;;;26.07;54.23
27980;BME280;15315;50.836;4.430;2022-08-18T05:23:49;100837.69;;;26.15;54.15
27980;BME280;15315;50.836;4.430;2022-08-18T05:33:50;100832.22;;;26.28;53.44
27980;BME280;15315;50.836;4.430;2022-08-18T05:43:51;100827.91;;;26.13;53.36
27980;BME280;15315;50.836;4.430;2022-08-18T05:53:52;100831.41;;;25.53;56.23
27980;BME280;15315;50.836;4.430;2022-08-18T06:05:33;100845.66;;;24.29;59.40
27980;BME280;15315;50.836;4.430;2022-08-18T06:15:13;100837.22;;;24.52;59.68
27980;BME280;15315;50.836;4.430;2022-08-18T06:25:42;100837.19;;;25.09;57.58
27980;BME280;15315;50.836;4.430;2022-08-18T06:35:50;100843.06;;;24.78;58.02
27980;BME280;15315;50.836;4.430;2022-08-18T06:45:51;100852.88;;;25.57;56.01
27980;BME280;15315;50.836;4.430;2022-08-18T06:55:52;100853.44;;;26.15;54.88
27980;BME280;15315;50.836;4.430;2022-08-18T07:26:29;100862.00;;;26.93;51.83
27980;BME280;15315;50.836;4.430;2022-08-18T07:36:34;100857.75;;;26.97;50.81
27980;BME280;15315;50.836;4.430;2022-08-18T07:47:01;100858.97;;;26.82;49.52
27980;BME280;15315;50.836;4.430;2022-08-18T07:57:05;100861.38;;;27.37;48.82
27980;BME280;15315;50.836;4.430;2022-08-18T08:07:13;100848.19;;;27.46;48.23
27980;BME280;15315;50.836;4.430;2022-08-18T08:17:30;100851.34;;;27.76;47.54
27980;BME280;15315;50.836;4.430;2022-08-18T08:37:54;100863.97;;;27.45;47.81
27980;BME280;15315;50.836;4.430;2022-08-18T09:28:59;100860.97;;;27.47;48.07
27980;BME280;15315;50.836;4.430;2022-08-18T10:40:27;100830.72;;;29.66;40.46
27980;BME280;15315;50.836;4.430;2022-08-18T10:50:29;100833.84;;;30.30;39.83
27980;BME280;15315;50.836;4.430;2022-08-18T11:00:45;100847.63;;;29.21;41.70
27980;BME280;15315;50.836;4.430;2022-08-18T11:10:48;100830.63;;;29.11;40.71
27980;BME280;15315;50.836;4.430;2022-08-18T11:20:50;100823.97;;;30.64;38.77
27980;BME280;15315;50.836;4.430;2022-08-18T11:30:53;100815.16;;;31.08;38.01
27980;BME280;15315;50.836;4.430;2022-08-18T11:41:10;100798.81;;;31.23;36.33
27980;BME280;15315;50.836;4.430;2022-08-18T12:01:36;100809.47;;;31.38;36.13
27980;BME280;15315;50.836;4.430;2022-08-18T12:11:49;100820.88;;;29.70;37.03
27980;BME280;15315;50.836;4.430;2022-08-18T12:21:52;100815.28;;;31.48;35.82
27980;BME280;15315;50.836;4.430;2022-08-18T12:31:54;100806.91;;;31.25;35.95
27980;BME280;15315;50.836;4.430;2022-08-18T12:41:55;100827.97;;;31.90;34.36
27980;BME280;15315;50.836;4.430;2022-08-18T12:51:56;100837.69;;;31.65;35.56
27980;BME280;15315;50.836;4.430;2022-08-18T13:01:56;100838.25;;;32.81;34.60
27980;BME280;15315;50.836;4.430;2022-08-18T13:11:58;100844.47;;;32.43;35.02
27980;BME280;15315;50.836;4.430;2022-08-18T13:21:58;100827.81;;;32.20;34.92
27980;BME280;15315;50.836;4.430;2022-08-18T13:31:59;100806.28;;;31.81;35.24
27980;BME280;15315;50.836;4.430;2022-08-18T13:42:00;100780.47;;;32.25;35.36
27980;BME280;15315;50.836;4.430;2022-08-18T13:52:01;100770.09;;;32.66;33.55
27980;BME280;15315;50.836;4.430;2022-08-18T14:02:08;100754.81;;;32.12;33.87
27980;BME280;15315;50.836;4.430;2022-08-18T14:12:16;100745.69;;;31.65;33.64
27980;BME280;15315;50.836;4.430;2022-08-18T14:22:17;100750.94;;;31.38;34.24
27980;BME280;15315;50.836;4.430;2022-08-18T14:32:37;100741.72;;;31.61;34.69
27980;BME280;15315;50.836;4.430;2022-08-18T14:42:37;100744.88;;;32.16;34.18
27980;BME280;15315;50.836;4.430;2022-08-18T14:52:40;100758.13;;;31.97;35.00
27980;BME280;15315;50.836;4.430;2022-08-18T15:02:43;100764.16;;;32.34;34.39
27980;BME280;15315;50.836;4.430;2022-08-18T15:12:43;100760.31;;;31.95;34.97
27980;BME280;15315;50.836;4.430;2022-08-18T15:22:44;100751.50;;;31.75;35.27
27980;BME280;15315;50.836;4.430;2022-08-18T15:33:04;100755.91;;;31.36;34.83
27980;BME280;15315;50.836;4.430;2022-08-18T15:43:06;100748.44;;;32.89;33.22
27980;BME280;15315;50.836;4.430;2022-08-18T15:53:07;100758.06;;;32.20;33.37
27980;BME280;15315;50.836;4.430;2022-08-18T16:03:11;100753.25;;;32.04;34.74
27980;BME280;15315;50.836;4.430;2022-08-18T16:13:13;100748.16;;;31.38;34.75
27980;BME280;15315;50.836;4.430;2022-08-18T16:23:13;100743.19;;;31.17;35.32
27980;BME280;15315;50.836;4.430;2022-08-18T16:33:14;100738.41;;;30.71;36.06
27980;BME280;15315;50.836;4.430;2022-08-18T16:43:15;100746.19;;;33.79;31.57
27980;BME280;15315;50.836;4.430;2022-08-18T16:53:16;100756.81;;;36.00;30.02
27980;BME280;15315;50.836;4.430;2022-08-18T17:03:17;100755.91;;;36.87;28.07
27980;BME280;15315;50.836;4.430;2022-08-18T17:13:59;100744.09;;;37.30;28.02
27980;BME280;15315;50.836;4.430;2022-08-18T17:24:04;100740.78;;;35.38;29.01
27980;BME280;15315;50.836;4.430;2022-08-18T17:34:08;100736.31;;;35.99;28.74
27980;BME280;15315;50.836;4.430;2022-08-18T17:44:10;100729.22;;;35.72;28.65
27980;BME280;15315;50.836;4.430;2022-08-18T17:54:18;100725.03;;;34.64;29.17
27980;BME280;15315;50.836;4.430;2022-08-18T18:04:22;100737.94;;;33.13;31.55
27980;BME280;15315;50.836;4.430;2022-08-18T18:14:34;100738.94;;;32.12;33.71
27980;BME280;15315;50.836;4.430;2022-08-18T18:24:37;100727.78;;;31.37;35.27
27980;BME280;15315;50.836;4.430;2022-08-18T18:34:43;100741.47;;;31.39;35.18
27980;BME280;15315;50.836;4.430;2022-08-18T18:44:59;100736.19;;;29.72;39.02
27980;BME280;15315;50.836;4.430;2022-08-18T18:55:23;100748.59;;;30.36;38.32
27980;BME280;15315;50.836;4.430;2022-08-18T19:05:44;100751.47;;;29.20;41.12
27980;BME280;15315;50.836;4.430;2022-08-18T19:15:47;100771.41;;;29.35;41.02
27980;BME280;15315;50.836;4.430;2022-08-18T19:25:50;100775.13;;;28.73;42.33
27980;BME280;15315;50.836;4.430;2022-08-18T19:46:26;100778.72;;;29.73;40.91
27980;BME280;15315;50.836;4.430;2022-08-18T20:37:31;100795.03;;;29.44;41.87
27980;BME280;15315;50.836;4.430;2022-08-18T20:47:50;100792.59;;;29.54;42.08
27980;BME280;15315;50.836;4.430;2022-08-18T20:57:58;100786.03;;;29.06;43.20
27980;BME280;15315;50.836;4.430;2022-08-18T21:18:18;100802.94;;;28.98;43.70
27980;BME280;15315;50.836;4.430;2022-08-18T21:28:19;100807.31;;;28.81;44.00
27980;BME280;15315;50.836;4.430;2022-08-18T21:38:26;100800.50;;;28.83;44.01
27980;BME280;15315;50.836;4.430;2022-08-18T21:48:27;100815.94;;;28.73;44.09
27980;BME280;15315;50.836;4.430;2022-08-18T22:08:44;100830.44;;;28.37;45.56
27980;BME280;15315;50.836;4.430;2022-08-18T22:18:45;100818.25;;;27.94;46.33
27980;BME280;15315;50.836;4.430;2022-08-18T22:39:10;100837.09;;;27.65;47.55
27980;BME280;15315;50.836;4.430;2022-08-18T22:49:11;100831.09;;;27.75;46.90
27980;BME280;15315;50.836;4.430;2022-08-18T22:59:13;100847.31;;;27.39;48.12
27980;BME280;15315;50.836;4.430;2022-08-18T23:09:13;100846.25;;;27.13;48.32
27980;BME280;15315;50.836;4.430;2022-08-18T23:19:16;100839.22;;;27.11;48.58
27980;BME280;15315;50.836;4.430;2022-08-18T23:29:18;100844.97;;;27.36;47.62
27980;BME280;15315;50.836;4.430;2022-08-18T23:39:19;100842.19;;;27.42;47.51
27980;BME280;15315;50.836;4.430;2022-08-18T23:49:19;100849.88;;;27.07;48.86
27980;BME280;15315;50.836;4.430;2022-08-18T23:59:21;100860.31;;;27.05;48.16
